Time;durP1;ratioP1;P1;durP2;ratioP2;P2;SDS_P1;SDS_P2;PMS_P1;PMS_P2;Temp;Humidity;BMP_temperature;BMP_pressure;BME280_temperature;BME280_humidity;BME280_pressure;Samples;Min_cycle;Max_cycle;Signal;HPM_P1;HPM_P2
2023/03/21 00:01:50;;;;;;;35.85;23.33;;;11.40;99.90;;;;;;4915778;29;20566;-80
2023/03/21 00:04:17;;;;;;;41.13;25.25;;;11.20;99.90;;;;;;4912118;29;20208;-80
2023/03/21 00:06:45;;;;;;;43.45;26.00;;;11.20;99.90;;;;;;4909773;29;20217;-82
2023/03/21 00:09:12;;;;;;;42.22;27.02;;;11.40;99.90;;;;;;4915256;29;20422;-82
2023/03/21 00:11:39;;;;;;;35.22;24.15;;;11.40;99.90;;;;;;4919411;29;20212;-81
2023/03/21 00:14:07;;;;;;;34.35;24.10;;;11.40;99.90;;;;;;4914801;29;20446;-82
2023/03/21 00:16:35;;;;;;;31.80;21.98;;;11.10;99.90;;;;;;4916779;29;20221;-81
2023/03/21 00:19:05;;;;;;;41.53;28.23;;;11.00;99.90;;;;;;4920725;29;20216;-79
2023/03/21 00:21:37;;;;;;;39.08;25.23;;;11.00;99.90;;;;;;4918977;29;20213;-80
2023/03/21 00:24:17;;;;;;;38.95;25.30;;;11.20;99.90;;;;;;4918753;29;20279;-80
2023/03/21 00:26:44;;;;;;;38.28;26.42;;;11.20;99.90;;;;;;4916882;29;20275;-79
2023/03/21 00:29:12;;;;;;;44.50;27.83;;;11.30;99.90;;;;;;4904912;29;20565;-80
2023/03/21 00:31:39;;;;;;;39.85;28.02;;;11.40;99.90;;;;;;4909091;29;20205;-80
2023/03/21 00:34:06;;;;;;;50.67;25.20;;;11.40;99.90;;;;;;4907693;29;20461;-80
2023/03/21 00:36:33;;;;;;;45.92;25.23;;;11.30;99.90;;;;;;4920133;29;20212;-81
2023/03/21 00:39:00;;;;;;;49.78;28.92;;;11.40;99.90;;;;;;4922710;29;20217;-79
2023/03/21 00:41:27;;;;;;;43.58;26.05;;;11.20;99.90;;;;;;4913089;29;20252;-81
2023/03/21 00:44:12;;;;;;;35.80;24.60;;;11.30;99.90;;;;;;4920861;29;20214;-79
2023/03/21 00:46:40;;;;;;;44.17;27.58;;;11.30;99.90;;;;;;4921281;29;20213;-79
2023/03/21 00:49:26;;;;;;;49.95;28.00;;;11.30;99.90;;;;;;4920960;29;20233;-79
2023/03/21 00:51:53;;;;;;;48.03;26.50;;;11.40;99.90;;;;;;4908538;29;20224;-80
2023/03/21 00:54:22;;;;;;;44.70;25.23;;;11.20;99.90;;;;;;4920962;29;20218;-81
2023/03/21 00:56:49;;;;;;;41.42;26.75;;;11.10;99.90;;;;;;4914606;29;20208;-79
2023/03/21 00:59:16;;;;;;;40.95;25.00;;;11.10;99.90;;;;;;4917790;29;20221;-80
2023/03/21 01:01:45;;;;;;;44.35;26.50;;;11.30;99.90;;;;;;4911704;29;20312;-80
2023/03/21 01:04:15;;;;;;;43.80;25.98;;;11.20;99.90;;;;;;4910694;29;20262;-82
2023/03/21 01:06:43;;;;;;;43.22;26.27;;;11.50;99.90;;;;;;4919417;29;20476;-80
2023/03/21 01:09:16;;;;;;;41.10;27.75;;;11.00;99.90;;;;;;4919491;29;20308;-80
2023/03/21 01:11:44;;;;;;;34.88;23.70;;;10.40;99.90;;;;;;4919528;29;20462;-81
2023/03/21 01:14:13;;;;;;;28.85;20.33;;;9.90;99.90;;;;;;4915618;29;20206;-80
2023/03/21 01:16:51;;;;;;;32.80;19.50;;;9.60;99.90;;;;;;4922259;29;20558;-81
2023/03/21 01:19:20;;;;;;;35.72;17.63;;;9.40;99.90;;;;;;4924574;29;20464;-81
2023/03/21 01:21:55;;;;;;;34.65;19.15;;;9.30;99.90;;;;;;4915424;29;20389;-80
2023/03/21 01:24:22;;;;;;;37.25;23.30;;;9.30;99.90;;;;;;4913265;29;20215;-80
2023/03/21 01:26:49;;;;;;;31.20;19.30;;;9.20;99.90;;;;;;4910973;29;20443;-80
2023/03/21 01:29:16;;;;;;;35.88;20.92;;;9.10;99.90;;;;;;4916529;29;20224;-81
2023/03/21 01:31:43;;;;;;;36.53;20.98;;;9.10;99.90;;;;;;4921152;29;20467;-81
2023/03/21 01:34:11;;;;;;;32.55;20.08;;;9.30;99.90;;;;;;4905603;29;20269;-79
2023/03/21 01:36:37;;;;;;;26.63;19.08;;;9.40;99.90;;;;;;4915402;29;20276;-83
2023/03/21 01:39:08;;;;;;;31.00;18.02;;;9.40;99.90;;;;;;4911232;29;20434;-81
2023/03/21 01:41:38;;;;;;;29.27;18.83;;;9.40;99.90;;;;;;4919677;29;20256;-80
2023/03/21 01:44:16;;;;;;;25.95;19.60;;;9.40;99.90;;;;;;4912817;29;20213;-80
2023/03/21 01:46:49;;;;;;;32.10;21.40;;;9.40;99.90;;;;;;4918062;29;20209;-81
2023/03/21 01:49:45;;;;;;;28.23;19.70;;;9.70;99.90;;;;;;4914929;29;20232;-81
2023/03/21 01:52:28;;;;;;;35.58;18.40;;;9.60;99.90;;;;;;4924059;29;20215;-81
2023/03/21 01:55:10;;;;;;;30.83;17.08;;;9.70;99.90;;;;;;4919306;29;20215;-80
2023/03/21 01:57:44;;;;;;;26.35;19.55;;;9.90;99.90;;;;;;4912514;29;20571;-81
2023/03/21 02:00:31;;;;;;;27.70;18.67;;;9.90;99.90;;;;;;4911903;29;20212;-82
2023/03/21 02:03:01;;;;;;;26.23;17.45;;;10.10;99.90;;;;;;4912998;29;20233;-81
2023/03/21 02:06:03;;;;;;;28.92;18.60;;;10.00;99.90;;;;;;4913744;29;20207;-79
2023/03/21 02:08:32;;;;;;;29.38;17.77;;;10.10;99.90;;;;;;4921108;29;20240;-80
2023/03/21 02:11:08;;;;;;;29.92;18.45;;;10.10;99.90;;;;;;4911896;29;20239;-81
2023/03/21 02:13:35;;;;;;;33.95;20.73;;;9.90;99.90;;;;;;4912829;29;20398;-81
2023/03/21 02:16:24;;;;;;;24.70;17.50;;;9.80;99.90;;;;;;4922986;29;20208;-80
2023/03/21 02:19:10;;;;;;;34.92;21.00;;;9.70;99.90;;;;;;4917405;29;20271;-80
2023/03/21 02:22:11;;;;;;;28.88;22.00;;;9.60;99.90;;;;;;4922819;29;20318;-81
2023/03/21 02:24:55;;;;;;;37.63;22.95;;;9.60;99.90;;;;;;4920720;29;20204;-81
2023/03/21 02:27:36;;;;;;;35.53;22.23;;;9.70;99.90;;;;;;4917955;29;20280;-81
2023/03/21 02:30:35;;;;;;;38.85;21.08;;;9.80;99.90;;;;;;4913602;29;20474;-81
2023/03/21 02:33:41;;;;;;;29.42;21.00;;;9.80;99.90;;;;;;4926513;29;20245;-83
2023/03/21 02:36:40;;;;;;;36.83;23.00;;;9.70;99.90;;;;;;4927196;29;20195;-82
2023/03/21 02:39:17;;;;;;;45.45;24.77;;;9.60;99.90;;;;;;4930453;29;20204;-80
2023/03/21 02:42:10;;;;;;;42.38;24.42;;;9.50;99.90;;;;;;4919986;29;20223;-81
2023/03/21 02:44:42;;;;;;;34.92;21.98;;;9.40;99.90;;;;;;4900242;29;20356;-79
2023/03/21 02:47:34;;;;;;;40.38;24.48;;;9.40;99.90;;;;;;4914967;29;20536;-80
2023/03/21 02:50:26;;;;;;;41.83;23.70;;;9.30;99.90;;;;;;4909127;29;20244;-78
2023/03/21 02:52:54;;;;;;;43.47;23.85;;;9.20;99.90;;;;;;4920678;29;20228;-78
2023/03/21 02:55:28;;;;;;;38.95;22.83;;;9.30;99.90;;;;;;4920930;29;20552;-79
2023/03/21 02:57:57;;;;;;;42.63;24.33;;;9.20;99.90;;;;;;4914833;29;20213;-79
2023/03/21 03:00:38;;;;;;;35.05;24.73;;;9.30;99.90;;;;;;4917805;29;20212;-78
2023/03/21 03:03:05;;;;;;;41.67;24.95;;;9.30;99.90;;;;;;4914008;29;20248;-79
2023/03/21 03:05:46;;;;;;;37.97;23.00;;;9.50;99.90;;;;;;4914229;29;20630;-81
2023/03/21 03:08:37;;;;;;;33.17;23.42;;;9.60;99.90;;;;;;4915253;29;20208;-78
2023/03/21 03:11:27;;;;;;;33.53;22.33;;;9.40;99.90;;;;;;4916041;29;20232;-79
2023/03/21 03:14:22;;;;;;;35.67;23.17;;;9.60;99.90;;;;;;4921777;29;20216;-80
2023/03/21 03:17:36;;;;;;;38.67;24.27;;;9.70;99.90;;;;;;4910611;29;20201;-80
2023/03/21 03:20:21;;;;;;;35.65;21.10;;;9.60;99.90;;;;;;4911129;29;20220;-80
2023/03/21 03:23:08;;;;;;;46.20;23.63;;;9.70;99.90;;;;;;4920933;29;20432;-82
2023/03/21 03:25:42;;;;;;;48.60;24.40;;;9.70;99.90;;;;;;4911008;29;20216;-80
2023/03/21 03:28:13;;;;;;;49.30;27.90;;;9.70;99.90;;;;;;4921315;29;20196;-80
2023/03/21 03:30:42;;;;;;;44.55;24.55;;;9.60;99.90;;;;;;4913757;29;20284;-80
2023/03/21 03:33:31;;;;;;;41.47;22.92;;;9.70;99.90;;;;;;4911098;29;20236;-82
2023/03/21 03:35:59;;;;;;;45.20;25.05;;;9.40;99.90;;;;;;4916605;29;20215;-81
2023/03/21 03:38:35;;;;;;;40.50;23.92;;;9.40;99.90;;;;;;4918555;29;20212;-80
2023/03/21 03:41:11;;;;;;;44.08;21.98;;;9.30;99.90;;;;;;4910002;29;20418;-80
2023/03/21 03:43:49;;;;;;;42.15;24.30;;;9.60;99.90;;;;;;4916596;29;20212;-79
2023/03/21 03:46:28;;;;;;;49.75;26.83;;;9.30;99.90;;;;;;4915912;29;20204;-80
2023/03/21 03:49:15;;;;;;;41.05;24.58;;;9.20;99.90;;;;;;4919524;29;20296;-79
2023/03/21 03:52:07;;;;;;;38.03;23.48;;;9.40;99.90;;;;;;4909221;29;20508;-81
2023/03/21 03:54:41;;;;;;;41.47;22.73;;;9.10;99.90;;;;;;4913820;29;20244;-81
2023/03/21 03:57:11;;;;;;;45.63;26.67;;;9.30;99.90;;;;;;4901031;29;20319;-80
2023/03/21 03:59:40;;;;;;;38.53;22.77;;;9.20;99.90;;;;;;4909857;29;20216;-81
2023/03/21 04:02:07;;;;;;;39.53;22.95;;;9.20;99.90;;;;;;4918466;29;20212;-79
2023/03/21 04:04:35;;;;;;;45.40;24.73;;;9.10;99.90;;;;;;4920399;29;20208;-80
2023/03/21 04:07:03;;;;;;;41.08;23.20;;;9.20;99.90;;;;;;4908388;29;20208;-80
2023/03/21 04:09:31;;;;;;;41.95;24.90;;;9.20;99.90;;;;;;4919616;29;20260;-79
2023/03/21 04:12:11;;;;;;;47.95;25.95;;;9.20;99.90;;;;;;4912425;29;20231;-79
2023/03/21 04:14:38;;;;;;;46.40;25.48;;;9.10;99.90;;;;;;4920280;29;20224;-80
2023/03/21 04:17:13;;;;;;;50.20;26.75;;;9.00;99.90;;;;;;4917919;29;20212;-79
2023/03/21 04:19:40;;;;;;;47.38;25.65;;;9.00;99.90;;;;;;4911926;29;20264;-78
2023/03/21 04:22:07;;;;;;;41.97;25.05;;;9.00;99.90;;;;;;4909436;29;20496;-78
2023/03/21 04:24:36;;;;;;;46.72;27.20;;;9.10;99.90;;;;;;4910905;29;20212;-78
2023/03/21 04:27:04;;;;;;;46.58;24.35;;;9.10;99.90;;;;;;4920992;29;20388;-79
2023/03/21 04:29:31;;;;;;;45.92;26.20;;;9.20;99.90;;;;;;4916056;29;20619;-78
2023/03/21 04:31:58;;;;;;;40.75;25.25;;;9.30;99.90;;;;;;4917962;29;20715;-79
2023/03/21 04:34:27;;;;;;;46.15;24.17;;;9.10;99.90;;;;;;4916490;29;20208;-79
2023/03/21 04:36:54;;;;;;;52.78;24.55;;;9.10;99.90;;;;;;4920222;29;20213;-79
2023/03/21 04:39:23;;;;;;;50.45;25.67;;;9.30;99.90;;;;;;4919025;29;20219;-80
2023/03/21 04:41:50;;;;;;;43.85;24.50;;;9.30;99.90;;;;;;4915069;29;20381;-80
2023/03/21 04:44:17;;;;;;;43.80;24.83;;;9.30;99.90;;;;;;4913676;29;20215;-80
2023/03/21 04:46:44;;;;;;;48.90;24.83;;;9.30;99.90;;;;;;4911157;29;20592;-79
2023/03/21 04:49:11;;;;;;;41.50;25.33;;;9.20;99.90;;;;;;4917727;29;20501;-80
2023/03/21 04:51:40;;;;;;;42.35;25.90;;;9.20;99.90;;;;;;4920462;29;20467;-80
2023/03/21 04:54:07;;;;;;;44.38;26.48;;;9.40;99.90;;;;;;4916667;29;20216;-80
2023/03/21 04:56:37;;;;;;;44.38;27.73;;;9.40;99.90;;;;;;4924114;29;20231;-79
2023/03/21 04:59:09;;;;;;;44.22;23.90;;;9.40;99.90;;;;;;4924805;29;20509;-80
2023/03/21 05:01:36;;;;;;;41.28;23.02;;;9.40;99.90;;;;;;4913805;29;20208;-80
2023/03/21 05:04:03;;;;;;;47.25;24.35;;;9.30;99.90;;;;;;4925171;29;20220;-80
2023/03/21 05:06:31;;;;;;;56.15;28.20;;;9.20;99.90;;;;;;4924527;29;20227;-80
2023/03/21 05:08:59;;;;;;;43.58;25.88;;;9.20;99.90;;;;;;4907829;29;20216;-81
2023/03/21 05:11:29;;;;;;;50.00;25.70;;;9.10;99.90;;;;;;4920887;29;20574;-80
2023/03/21 05:13:58;;;;;;;44.92;25.63;;;9.20;99.90;;;;;;4913866;29;20537;-82
2023/03/21 05:16:29;;;;;;;47.53;27.73;;;9.20;99.90;;;;;;4917223;29;20213;-80
2023/03/21 05:19:04;;;;;;;50.30;28.90;;;9.20;99.90;;;;;;4905958;29;20513;-79
2023/03/21 05:21:40;;;;;;;45.63;25.42;;;9.10;99.90;;;;;;4923095;29;20561;-81
2023/03/21 05:24:11;;;;;;;50.97;27.13;;;9.30;99.90;;;;;;4920368;29;20234;-80
2023/03/21 05:26:39;;;;;;;47.03;28.80;;;9.10;99.90;;;;;;4925281;29;20386;-81
2023/03/21 05:29:06;;;;;;;53.10;28.05;;;9.40;99.90;;;;;;4915046;29;20245;-81
2023/03/21 05:31:33;;;;;;;55.53;27.75;;;9.40;99.90;;;;;;4910943;29;20239;-82
2023/03/21 05:34:00;;;;;;;49.75;28.13;;;9.60;99.90;;;;;;4914786;29;20232;-80
2023/03/21 05:36:28;;;;;;;50.65;27.92;;;9.60;99.90;;;;;;4922166;29;20258;-82
2023/03/21 05:38:55;;;;;;;41.88;26.27;;;9.60;99.90;;;;;;4896434;29;20519;-81
2023/03/21 05:41:22;;;;;;;44.42;25.17;;;9.80;99.90;;;;;;4915382;29;20228;-79
2023/03/21 05:43:49;;;;;;;45.90;25.38;;;9.80;99.90;;;;;;4914125;29;20223;-79
2023/03/21 05:46:16;;;;;;;56.45;27.42;;;10.00;99.90;;;;;;4912925;29;20212;-79
2023/03/21 05:48:45;;;;;;;42.72;26.38;;;10.00;99.90;;;;;;4922647;29;20542;-81
2023/03/21 05:51:11;;;;;;;47.72;25.92;;;10.00;99.90;;;;;;4921327;29;20228;-82
2023/03/21 05:53:38;;;;;;;46.28;25.25;;;10.20;99.90;;;;;;4912384;29;20200;-81
2023/03/21 05:56:06;;;;;;;51.72;27.52;;;10.00;99.90;;;;;;4913619;29;20205;-81
2023/03/21 05:58:34;;;;;;;42.88;25.55;;;10.00;99.90;;;;;;4912502;29;20453;-82
2023/03/21 06:01:00;;;;;;;45.95;24.60;;;10.00;99.90;;;;;;4922931;29;20523;-82
2023/03/21 06:03:27;;;;;;;48.38;26.77;;;9.80;99.90;;;;;;4923642;29;20228;-80
2023/03/21 06:05:55;;;;;;;33.75;23.13;;;10.00;99.90;;;;;;4917974;29;20446;-80
2023/03/21 06:08:22;;;;;;;40.80;25.52;;;10.00;99.90;;;;;;4916234;29;20498;-81
2023/03/21 06:10:49;;;;;;;44.90;25.23;;;10.00;99.90;;;;;;4922978;29;20586;-82
2023/03/21 06:13:16;;;;;;;39.60;22.80;;;9.80;99.90;;;;;;4917989;29;20249;-81
2023/03/21 06:15:43;;;;;;;45.83;23.25;;;9.70;99.90;;;;;;4919675;29;20216;-80
2023/03/21 06:18:10;;;;;;;48.15;26.00;;;9.70;99.90;;;;;;4920187;29;20201;-79
2023/03/21 06:20:37;;;;;;;45.08;24.05;;;9.60;99.90;;;;;;4920174;29;20240;-81
2023/03/21 06:23:05;;;;;;;40.85;23.30;;;9.70;99.90;;;;;;4916327;29;20384;-80
2023/03/21 06:25:32;;;;;;;38.33;24.05;;;9.80;99.90;;;;;;4923039;29;20213;-79
2023/03/21 06:27:59;;;;;;;41.30;23.65;;;9.80;99.90;;;;;;4920034;29;20213;-79
2023/03/21 06:30:26;;;;;;;40.22;23.15;;;10.00;99.90;;;;;;4917093;29;20339;-78
2023/03/21 06:32:54;;;;;;;43.17;24.50;;;10.10;99.90;;;;;;4914108;29;20509;-79
2023/03/21 06:35:21;;;;;;;32.47;20.20;;;10.20;99.90;;;;;;4918439;29;20228;-80
2023/03/21 06:37:48;;;;;;;45.95;21.38;;;10.30;99.90;;;;;;4915135;29;20212;-81
2023/03/21 06:40:15;;;;;;;37.47;21.70;;;10.40;99.90;;;;;;4920193;29;20241;-81
2023/03/21 06:42:42;;;;;;;37.70;22.23;;;10.50;99.90;;;;;;4908517;29;20214;-81
2023/03/21 06:45:10;;;;;;;35.00;20.27;;;10.50;99.90;;;;;;4919590;29;20216;-81
2023/03/21 06:47:37;;;;;;;34.53;20.25;;;10.60;99.90;;;;;;4922888;29;20216;-80
2023/03/21 06:50:05;;;;;;;33.20;20.77;;;10.40;99.90;;;;;;4921414;29;20223;-83
2023/03/21 06:52:33;;;;;;;31.25;20.25;;;10.40;99.90;;;;;;4917247;29;20224;-81
2023/03/21 06:54:59;;;;;;;33.00;20.85;;;10.40;99.90;;;;;;4920523;29;20484;-82
2023/03/21 06:57:27;;;;;;;29.88;20.10;;;10.30;99.90;;;;;;4926052;29;20204;-82
2023/03/21 06:59:53;;;;;;;27.08;18.83;;;10.30;99.90;;;;;;4930427;29;20479;-82
2023/03/21 07:02:20;;;;;;;31.73;17.92;;;10.20;99.90;;;;;;4923617;29;20217;-81
2023/03/21 07:04:48;;;;;;;26.85;16.73;;;10.20;99.90;;;;;;4925086;29;20212;-81
2023/03/21 07:07:14;;;;;;;28.27;18.60;;;10.20;99.90;;;;;;4934987;29;20256;-81
2023/03/21 07:09:42;;;;;;;32.42;21.45;;;10.10;99.90;;;;;;4932792;29;20218;-81
2023/03/21 07:12:09;;;;;;;27.55;18.50;;;10.10;99.90;;;;;;4920253;29;20241;-81
2023/03/21 07:14:37;;;;;;;33.20;21.13;;;10.10;99.90;;;;;;4911585;29;20220;-83
2023/03/21 07:17:03;;;;;;;39.40;22.23;;;10.40;99.90;;;;;;4922133;29;20215;-81
2023/03/21 07:19:30;;;;;;;30.90;19.77;;;10.50;99.90;;;;;;4910781;29;20552;-82
2023/03/21 07:21:59;;;;;;;27.52;17.63;;;10.40;99.90;;;;;;4907816;29;20271;-82
2023/03/21 07:24:26;;;;;;;32.60;20.45;;;10.20;99.90;;;;;;4921665;29;20208;-80
2023/03/21 07:26:53;;;;;;;36.97;22.02;;;10.10;99.90;;;;;;4906730;29;20529;-79
2023/03/21 07:29:22;;;;;;;35.25;21.45;;;10.20;99.90;;;;;;4920281;29;20434;-80
2023/03/21 07:31:49;;;;;;;36.40;24.67;;;10.20;99.90;;;;;;4909702;29;20285;-79
2023/03/21 07:34:17;;;;;;;33.03;22.00;;;10.30;99.90;;;;;;4918000;29;20212;-79
2023/03/21 07:36:44;;;;;;;29.08;17.55;;;10.40;99.90;;;;;;4913733;29;20232;-79
2023/03/21 07:39:11;;;;;;;40.35;23.60;;;10.40;99.90;;;;;;4921177;29;20223;-81
2023/03/21 07:41:39;;;;;;;32.42;20.75;;;10.40;99.90;;;;;;4910138;29;20572;-79
2023/03/21 07:44:05;;;;;;;34.58;22.80;;;10.40;99.90;;;;;;4917934;29;20220;-78
2023/03/21 07:46:37;;;;;;;35.50;22.58;;;10.60;99.90;;;;;;4913690;29;20212;-78
2023/03/21 07:49:05;;;;;;;35.38;20.60;;;10.60;99.90;;;;;;4920870;29;20284;-79
2023/03/21 07:51:34;;;;;;;32.10;20.85;;;10.60;99.90;;;;;;4920715;29;20248;-78
2023/03/21 07:54:01;;;;;;;37.20;21.73;;;10.70;99.90;;;;;;4917933;29;20212;-78
2023/03/21 07:56:28;;;;;;;31.15;21.00;;;10.80;99.90;;;;;;4915106;29;20262;-79
2023/03/21 07:58:55;;;;;;;37.05;21.40;;;10.70;99.90;;;;;;4913467;29;20205;-80
2023/03/21 08:01:22;;;;;;;28.85;19.35;;;10.60;99.90;;;;;;4908158;29;20255;-79
2023/03/21 08:03:50;;;;;;;25.08;17.52;;;10.70;99.90;;;;;;4921798;29;20391;-81
2023/03/21 08:06:17;;;;;;;31.88;20.08;;;10.60;99.90;;;;;;4915726;29;20304;-81
2023/03/21 08:08:44;;;;;;;31.65;18.15;;;10.70;99.90;;;;;;4915015;29;20213;-80
2023/03/21 08:11:11;;;;;;;32.90;18.73;;;10.50;99.90;;;;;;4911927;29;20277;-82
2023/03/21 08:13:38;;;;;;;27.35;19.40;;;10.40;99.90;;;;;;4911973;29;20218;-83
2023/03/21 08:16:06;;;;;;;30.60;17.30;;;10.60;99.90;;;;;;4911292;29;20248;-81
2023/03/21 08:18:33;;;;;;;29.83;19.00;;;10.60;99.90;;;;;;4915610;29;20204;-80
2023/03/21 08:21:01;;;;;;;30.67;16.45;;;10.50;99.90;;;;;;4918156;29;20532;-81
2023/03/21 08:23:29;;;;;;;26.08;15.23;;;10.30;99.90;;;;;;4915420;29;20217;-80
2023/03/21 08:25:56;;;;;;;22.63;16.75;;;10.20;99.90;;;;;;4919438;29;20209;-80
2023/03/21 08:28:24;;;;;;;24.77;15.65;;;10.50;99.90;;;;;;4908406;29;20213;-82
2023/03/21 08:30:50;;;;;;;27.38;15.90;;;10.50;99.90;;;;;;4912186;29;20257;-81
2023/03/21 08:33:18;;;;;;;20.70;14.48;;;10.50;99.90;;;;;;4913218;29;20207;-81
2023/03/21 08:35:45;;;;;;;28.27;17.00;;;10.30;99.90;;;;;;4916612;29;20217;-81
2023/03/21 08:38:13;;;;;;;24.10;16.88;;;10.40;99.90;;;;;;4920335;29;20260;-80
2023/03/21 08:40:40;;;;;;;30.65;15.95;;;10.60;99.90;;;;;;4916053;29;20339;-82
2023/03/21 08:43:07;;;;;;;31.60;18.10;;;10.90;99.90;;;;;;4912896;29;20239;-81
2023/03/21 08:45:34;;;;;;;27.50;17.77;;;11.30;99.90;;;;;;4922783;29;20208;-80
2023/03/21 08:48:02;;;;;;;30.15;15.68;;;11.50;99.90;;;;;;4921515;29;20431;-81
2023/03/21 08:50:30;;;;;;;27.48;17.08;;;11.60;99.90;;;;;;4913736;29;20218;-80
2023/03/21 08:52:57;;;;;;;26.48;17.45;;;11.30;99.90;;;;;;4916833;29;20212;-82
2023/03/21 08:55:24;;;;;;;32.85;18.85;;;11.10;99.90;;;;;;4922108;29;20568;-80
2023/03/21 08:57:52;;;;;;;30.73;16.85;;;11.00;99.90;;;;;;4914742;29;20211;-80
2023/03/21 09:00:20;;;;;;;26.30;17.85;;;11.20;99.90;;;;;;4919139;29;20217;-84
2023/03/21 09:02:51;;;;;;;26.10;16.45;;;11.20;99.90;;;;;;4927509;29;20209;-81
2023/03/21 09:05:18;;;;;;;28.08;17.67;;;11.10;99.90;;;;;;4913594;29;20287;-77
2023/03/21 09:07:46;;;;;;;25.83;17.65;;;11.40;99.90;;;;;;4916326;29;20256;-78
2023/03/21 09:10:17;;;;;;;28.73;18.35;;;11.60;99.90;;;;;;4904990;29;20372;-79
2023/03/21 09:12:53;;;;;;;28.88;17.85;;;11.70;99.90;;;;;;4908630;29;20495;-80
2023/03/21 09:15:23;;;;;;;34.25;18.00;;;11.70;99.90;;;;;;4906310;29;20206;-79
2023/03/21 09:17:55;;;;;;;29.95;18.48;;;11.60;99.90;;;;;;4915961;29;20219;-77
2023/03/21 09:20:29;;;;;;;33.00;18.73;;;11.80;99.90;;;;;;4906577;29;20516;-78
2023/03/21 09:22:57;;;;;;;19.70;15.15;;;11.90;99.90;;;;;;4906111;29;20258;-78
2023/03/21 09:25:28;;;;;;;29.50;17.92;;;11.90;99.90;;;;;;4912074;29;20281;-79
2023/03/21 09:27:55;;;;;;;23.63;15.48;;;11.80;99.90;;;;;;4914908;29;20218;-79
2023/03/21 09:30:22;;;;;;;19.80;14.95;;;11.80;99.90;;;;;;4910337;29;20213;-78
2023/03/21 09:32:54;;;;;;;21.92;17.15;;;12.00;99.90;;;;;;4912795;29;20239;-81
2023/03/21 09:35:21;;;;;;;32.28;15.65;;;12.10;99.90;;;;;;4914960;29;20280;-79
2023/03/21 09:37:48;;;;;;;22.00;16.98;;;12.10;99.90;;;;;;4914965;29;20210;-78
2023/03/21 09:40:26;;;;;;;21.77;15.85;;;12.50;99.90;;;;;;4918662;29;20481;-79
2023/03/21 09:43:08;;;;;;;28.33;17.80;;;13.00;99.90;;;;;;4916798;29;20403;-78
2023/03/21 09:45:49;;;;;;;24.05;17.15;;;13.50;99.90;;;;;;4917488;29;20490;-79
2023/03/21 09:48:33;;;;;;;24.27;17.85;;;13.50;99.90;;;;;;4923833;29;20220;-79
2023/03/21 09:51:04;;;;;;;24.08;16.00;;;14.20;99.90;;;;;;4923197;29;20230;-80
2023/03/21 09:53:37;;;;;;;24.58;17.63;;;14.40;99.90;;;;;;4911219;29;20789;-80
2023/03/21 09:56:08;;;;;;;23.30;14.73;;;14.20;99.90;;;;;;4908111;29;20255;-82
2023/03/21 09:58:42;;;;;;;25.05;14.82;;;14.30;99.90;;;;;;4923099;29;20213;-80
2023/03/21 10:01:21;;;;;;;18.90;15.00;;;14.40;99.90;;;;;;4914335;29;20219;-78
2023/03/21 10:03:49;;;;;;;17.67;15.45;;;14.10;99.90;;;;;;4913015;29;20400;-81
2023/03/21 10:06:17;;;;;;;21.10;16.35;;;14.00;99.90;;;;;;4921498;29;20217;-79
2023/03/21 10:08:46;;;;;;;21.33;14.50;;;14.30;99.90;;;;;;4916491;29;20425;-79
2023/03/21 10:11:16;;;;;;;26.75;17.45;;;14.50;99.90;;;;;;4913060;29;20231;-80
2023/03/21 10:13:51;;;;;;;24.67;16.25;;;14.70;99.90;;;;;;4916516;29;20208;-79
2023/03/21 10:16:33;;;;;;;25.70;17.25;;;14.70;99.90;;;;;;4921168;29;20506;-80
2023/03/21 10:19:04;;;;;;;27.30;17.80;;;14.50;99.90;;;;;;4923499;29;20216;-80
2023/03/21 10:21:31;;;;;;;22.67;18.42;;;14.50;99.90;;;;;;4904681;29;20433;-80
2023/03/21 10:24:27;;;;;;;22.47;18.10;;;14.60;99.90;;;;;;4920710;29;20204;-79
2023/03/21 10:26:55;;;;;;;18.80;14.90;;;15.60;99.90;;;;;;4918085;29;20549;-81
2023/03/21 10:29:28;;;;;;;23.40;18.27;;;15.40;99.90;;;;;;4920329;29;20424;-79
2023/03/21 10:31:55;;;;;;;26.00;16.83;;;15.80;99.90;;;;;;4912979;29;20632;-81
2023/03/21 10:34:38;;;;;;;24.87;19.90;;;15.30;99.90;;;;;;4918773;29;20471;-79
2023/03/21 10:37:06;;;;;;;22.53;16.00;;;15.30;99.90;;;;;;4907027;29;20852;-80
2023/03/21 10:39:39;;;;;;;22.97;16.73;;;15.40;99.90;;;;;;4922319;29;20766;-81
2023/03/21 10:42:20;;;;;;;23.80;15.57;;;15.30;99.90;;;;;;4916988;29;20887;-82
2023/03/21 10:44:49;;;;;;;26.13;16.90;;;14.90;99.90;;;;;;4911310;29;20696;-79
2023/03/21 10:47:24;;;;;;;22.83;17.47;;;15.00;99.90;;;;;;4920042;29;20585;-82
2023/03/21 10:49:52;;;;;;;24.30;17.33;;;15.30;99.90;;;;;;4922182;29;20413;-80
2023/03/21 10:52:46;;;;;;;22.40;18.60;;;15.50;99.90;;;;;;4918453;29;20489;-80
2023/03/21 10:55:29;;;;;;;26.83;18.17;;;15.80;99.90;;;;;;4913209;29;20753;-79
2023/03/21 10:58:00;;;;;;;24.03;18.10;;;15.70;99.90;;;;;;4919313;29;20738;-81
2023/03/21 11:00:35;;;;;;;26.30;19.67;;;15.20;99.90;;;;;;4910432;29;20502;-80
2023/03/21 11:03:04;;;;;;;25.60;19.10;;;15.40;99.90;;;;;;4911331;29;20793;-80
2023/03/21 11:05:38;;;;;;;23.33;16.20;;;15.40;99.90;;;;;;4914775;29;20425;-80
2023/03/21 11:08:14;;;;;;;22.10;17.50;;;15.40;99.90;;;;;;4907362;29;20415;-82
2023/03/21 11:10:52;;;;;;;24.47;18.80;;;15.30;99.90;;;;;;4913823;29;20462;-80
2023/03/21 11:13:25;;;;;;;24.00;18.07;;;15.50;99.90;;;;;;4914601;29;20482;-81
2023/03/21 11:15:57;;;;;;;24.73;17.80;;;15.50;99.90;;;;;;4905106;29;20466;-80
2023/03/21 11:18:29;;;;;;;28.13;19.97;;;15.60;99.90;;;;;;4919238;29;20418;-80
2023/03/21 11:21:02;;;;;;;24.10;19.27;;;15.40;99.90;;;;;;4918109;29;20455;-80
2023/03/21 11:23:31;;;;;;;32.73;20.40;;;15.20;99.90;;;;;;4910322;29;20423;-79
2023/03/21 11:26:00;;;;;;;25.00;19.80;;;15.00;99.90;;;;;;4920372;29;20450;-79
2023/03/21 11:28:39;;;;;;;29.67;21.13;;;15.10;99.90;;;;;;4921362;29;20458;-80
2023/03/21 11:31:09;;;;;;;26.40;18.80;;;15.00;99.90;;;;;;4929515;29;20402;-80
2023/03/21 11:33:42;;;;;;;31.75;21.52;;;14.90;99.90;;;;;;4933465;29;20471;-81
2023/03/21 11:36:18;;;;;;;30.43;21.47;;;14.80;99.90;;;;;;4925825;29;20189;-82
2023/03/21 11:38:55;;;;;;;29.93;21.43;;;14.90;99.90;;;;;;4918493;29;20444;-79
2023/03/21 11:41:28;;;;;;;33.17;21.60;;;14.90;99.90;;;;;;4920194;29;20447;-79
2023/03/21 11:43:56;;;;;;;29.10;21.17;;;15.00;99.90;;;;;;4915515;29;20456;-80
2023/03/21 11:46:29;;;;;;;25.70;20.10;;;15.30;99.90;;;;;;4916650;29;20447;-78
2023/03/21 11:48:58;;;;;;;27.90;23.47;;;15.40;99.90;;;;;;4921817;29;20565;-79
2023/03/21 11:51:47;;;;;;;28.70;20.50;;;15.20;99.90;;;;;;4920315;29;20422;-79
2023/03/21 11:54:40;;;;;;;27.20;19.67;;;14.90;99.90;;;;;;4919395;29;20439;-79
2023/03/21 11:57:31;;;;;;;32.03;20.60;;;14.80;99.90;;;;;;4909025;29;20414;-80
2023/03/21 12:00:24;;;;;;;29.17;22.35;;;14.70;99.90;;;;;;4920509;29;20667;-81
2023/03/21 12:03:29;;;;;;;28.40;19.47;;;14.50;99.90;;;;;;4905411;29;20221;-78
2023/03/21 12:06:37;;;;;;;27.20;19.83;;;14.50;99.90;;;;;;4910614;29;20471;-78
2023/03/21 12:09:37;;;;;;;31.03;22.90;;;14.60;99.90;;;;;;4909489;29;20204;-80
2023/03/21 12:12:12;;;;;;;33.63;23.30;;;14.70;99.90;;;;;;4909420;29;20849;-79
2023/03/21 12:14:52;;;;;;;25.90;19.50;;;15.00;99.90;;;;;;4907916;29;20432;-80
2023/03/21 12:17:53;;;;;;;46.53;24.07;;;14.90;99.90;;;;;;4910902;29;20208;-82
2023/03/21 12:20:28;;;;;;;29.33;21.60;;;15.00;99.90;;;;;;4908283;29;20444;-81
2023/03/21 12:23:09;;;;;;;33.10;18.73;;;15.50;99.90;;;;;;4901331;29;20516;-79
2023/03/21 12:25:41;;;;;;;30.20;19.50;;;15.80;99.90;;;;;;4913695;29;20468;-80
2023/03/21 12:28:30;;;;;;;29.83;19.43;;;16.00;99.90;;;;;;4923582;29;20770;-80
2023/03/21 12:31:16;;;;;;;27.20;20.43;;;16.20;99.90;;;;;;4906469;29;20489;-81
2023/03/21 12:34:02;;;;;;;30.00;18.23;;;16.50;99.90;;;;;;4907099;29;20422;-80
2023/03/21 12:36:57;;;;;;;23.73;18.40;;;16.40;99.90;;;;;;4909503;29;20431;-80
2023/03/21 12:39:29;;;;;;;27.00;20.50;;;16.10;99.90;;;;;;4915570;29;20422;-80
2023/03/21 12:42:08;;;;;;;27.13;20.40;;;16.10;99.90;;;;;;4904799;29;20439;-80
2023/03/21 12:44:40;;;;;;;28.90;18.80;;;16.10;99.90;;;;;;4915430;29;20823;-80
2023/03/21 12:47:18;;;;;;;26.40;18.93;;;16.20;99.90;;;;;;4905571;29;20835;-79
2023/03/21 12:49:55;;;;;;;21.93;17.93;;;16.10;99.90;;;;;;4921563;29;20433;-81
2023/03/21 12:52:28;;;;;;;24.43;18.30;;;15.80;99.90;;;;;;4910372;29;20873;-82
2023/03/21 12:55:06;;;;;;;28.97;19.60;;;15.70;99.90;;;;;;4921434;29;20473;-80
2023/03/21 12:57:46;;;;;;;26.00;17.27;;;15.20;99.90;;;;;;4910129;29;20706;-80
2023/03/21 13:00:47;;;;;;;31.20;19.60;;;15.20;99.90;;;;;;4913954;29;20442;-79